createdAt,value
2018-05-15T00:01:04.744Z,99.90
2018-05-15T00:03:32.245Z,99.90
2018-05-15T00:05:59.782Z,99.90
2018-05-15T00:08:27.288Z,99.90
2018-05-15T00:10:54.789Z,99.90
2018-05-15T00:13:22.470Z,99.90
2018-05-15T00:15:49.970Z,99.90
2018-05-15T00:18:18.224Z,99.90
2018-05-15T00:20:45.724Z,99.90
2018-05-15T00:23:13.981Z,99.90
2018-05-15T00:25:41.465Z,99.90
2018-05-15T00:28:08.977Z,99.90
2018-05-15T00:30:36.478Z,99.90
2018-05-15T00:33:04.780Z,99.90
2018-05-15T00:35:32.363Z,99.90
2018-05-15T00:37:59.857Z,99.90
2018-05-15T00:40:28.174Z,99.90
2018-05-15T00:42:55.689Z,99.90
2018-05-15T00:45:23.946Z,99.90
2018-05-15T00:47:51.511Z,99.90
2018-05-15T00:50:19.013Z,99.90
2018-05-15T00:52:46.545Z,99.90
2018-05-15T00:55:26.742Z,99.90
2018-05-15T00:57:54.225Z,99.90
2018-05-15T01:00:21.749Z,99.90
2018-05-15T01:02:49.285Z,99.90
2018-05-15T01:05:17.531Z,99.90
2018-05-15T01:07:45.019Z,99.90
2018-05-15T01:10:13.301Z,99.90
2018-05-15T01:12:41.557Z,99.90
2018-05-15T01:15:09.130Z,99.90
2018-05-15T01:17:36.727Z,99.90
2018-05-15T01:20:04.249Z,99.90
2018-05-15T01:22:32.502Z,99.90
2018-05-15T01:25:00.020Z,99.90
2018-05-15T01:27:27.526Z,99.90
2018-05-15T01:29:55.027Z,99.90
2018-05-15T01:32:22.571Z,99.90
2018-05-15T01:34:50.066Z,99.90
2018-05-15T01:37:17.566Z,99.90
2018-05-15T01:39:45.861Z,99.90
2018-05-15T01:42:13.374Z,99.90
2018-05-15T01:44:40.865Z,99.90
2018-05-15T01:47:09.225Z,99.90
2018-05-15T01:49:36.729Z,99.90
2018-05-15T01:52:04.225Z,99.90
2018-05-15T01:54:31.773Z,99.90
2018-05-15T01:56:59.266Z,99.90
2018-05-15T01:59:26.775Z,99.90
2018-05-15T02:01:54.386Z,99.90
2018-05-15T02:04:21.886Z,99.90
2018-05-15T02:06:49.388Z,99.90
2018-05-15T02:09:16.891Z,99.90
2018-05-15T02:11:45.149Z,99.90
2018-05-15T02:14:13.437Z,99.90
2018-05-15T02:16:41.713Z,99.90
2018-05-15T02:19:09.982Z,99.90
2018-05-15T02:21:37.485Z,99.90
2018-05-15T02:24:04.998Z,99.90
2018-05-15T02:26:32.485Z,99.90
2018-05-15T02:28:59.988Z,99.90
2018-05-15T02:31:27.499Z,99.90
2018-05-15T02:33:54.999Z,99.90
2018-05-15T02:36:22.481Z,99.90
2018-05-15T02:38:49.993Z,99.90
2018-05-15T02:41:17.489Z,99.90
2018-05-15T02:43:44.987Z,99.90
2018-05-15T02:46:12.502Z,99.90
2018-05-15T02:48:40.018Z,99.90
2018-05-15T02:51:07.510Z,99.90
2018-05-15T02:53:35.018Z,99.90
2018-05-15T02:56:03.269Z,99.90
2018-05-15T02:58:30.761Z,99.90
2018-05-15T03:00:58.286Z,99.90
2018-05-15T03:03:25.798Z,99.90
2018-05-15T03:05:53.290Z,99.90
2018-05-15T03:08:20.809Z,99.90
2018-05-15T03:10:48.388Z,99.90
2018-05-15T03:13:15.825Z,99.90
2018-05-15T03:15:43.360Z,99.90
2018-05-15T03:18:11.615Z,99.90
2018-05-15T03:20:39.106Z,99.90
2018-05-15T03:23:06.610Z,99.90
2018-05-15T03:25:34.125Z,99.90
2018-05-15T03:28:01.616Z,99.90
2018-05-15T03:30:29.127Z,99.90
2018-05-15T03:32:56.629Z,99.90
2018-05-15T03:35:24.120Z,99.90
2018-05-15T03:37:51.641Z,99.90
2018-05-15T03:40:19.137Z,99.90
2018-05-15T03:42:46.631Z,99.90
2018-05-15T03:45:14.193Z,99.90
2018-05-15T03:47:41.689Z,99.90
2018-05-15T03:50:09.209Z,99.90
2018-05-15T03:52:36.747Z,99.90
2018-05-15T03:55:05.086Z,99.90
2018-05-15T03:57:32.524Z,99.90
2018-05-15T04:00:00.041Z,99.90
2018-05-15T04:02:40.087Z,99.90
2018-05-15T04:05:19.573Z,99.90
2018-05-15T04:07:48.990Z,99.90
2018-05-15T04:10:16.492Z,99.90
2018-05-15T04:12:44.014Z,99.90
2018-05-15T04:15:12.306Z,99.90
2018-05-15T04:17:39.798Z,99.90
2018-05-15T04:20:08.080Z,99.90
2018-05-15T04:22:36.329Z,99.90
2018-05-15T04:25:03.814Z,99.90
2018-05-15T04:27:32.096Z,99.90
2018-05-15T04:29:59.587Z,99.90
2018-05-15T04:32:27.093Z,99.90
2018-05-15T04:34:54.632Z,99.90
2018-05-15T04:37:23.148Z,99.90
2018-05-15T04:39:51.406Z,99.90
2018-05-15T04:42:18.931Z,99.90
2018-05-15T04:44:46.471Z,99.90
2018-05-15T04:47:13.969Z,99.90
2018-05-15T04:49:41.481Z,99.90
2018-05-15T04:52:08.970Z,99.90
2018-05-15T04:54:36.460Z,99.90
2018-05-15T04:57:04.737Z,99.90
2018-05-15T04:59:32.239Z,99.90
2018-05-15T05:01:59.867Z,99.90
2018-05-15T05:04:27.347Z,99.90
2018-05-15T05:06:54.843Z,99.90
2018-05-15T05:09:23.160Z,99.90
2018-05-15T05:11:51.536Z,99.90
2018-05-15T05:14:19.317Z,99.90
2018-05-15T05:16:47.565Z,99.90
2018-05-15T05:19:15.078Z,99.90
2018-05-15T05:21:42.569Z,99.90
2018-05-15T05:24:10.079Z,99.90
2018-05-15T05:26:37.585Z,99.90
2018-05-15T05:29:05.070Z,99.90
2018-05-15T05:31:33.588Z,99.90
2018-05-15T05:34:01.093Z,99.90
2018-05-15T05:36:28.581Z,99.90
2018-05-15T05:38:56.830Z,99.90
2018-05-15T05:41:24.355Z,99.90
2018-05-15T05:43:51.838Z,99.90
2018-05-15T05:46:19.371Z,99.90
2018-05-15T05:48:46.860Z,99.90
2018-05-15T05:51:14.357Z,99.90
2018-05-15T05:53:41.840Z,99.90
2018-05-15T05:56:09.383Z,99.90
2018-05-15T05:58:36.873Z,99.90
2018-05-15T06:01:04.360Z,99.90
2018-05-15T06:03:32.764Z,99.90
2018-05-15T06:06:00.278Z,99.90
2018-05-15T06:08:28.555Z,99.90
2018-05-15T06:10:56.095Z,99.90
2018-05-15T06:13:23.590Z,99.90
2018-05-15T06:15:51.140Z,99.90
2018-05-15T06:18:18.680Z,99.90
2018-05-15T06:20:46.196Z,99.90
2018-05-15T06:23:13.702Z,99.90
2018-05-15T06:25:41.287Z,99.90
2018-05-15T06:28:09.569Z,99.90
2018-05-15T06:30:37.056Z,99.90
2018-05-15T06:33:04.560Z,99.90
2018-05-15T06:35:32.826Z,99.90
2018-05-15T06:38:00.323Z,99.90
2018-05-15T06:40:27.842Z,99.90
2018-05-15T06:42:55.335Z,99.90
2018-05-15T06:45:22.841Z,99.90
2018-05-15T06:47:50.354Z,99.90
2018-05-15T06:50:17.843Z,99.90
2018-05-15T06:52:45.329Z,99.90
2018-05-15T06:55:13.093Z,99.90
2018-05-15T06:57:40.577Z,99.90
2018-05-15T07:00:08.917Z,99.90
2018-05-15T07:02:36.421Z,99.90
2018-05-15T07:05:03.906Z,99.90
2018-05-15T07:07:32.158Z,99.90
2018-05-15T07:10:00.453Z,99.90
2018-05-15T07:12:28.707Z,99.90
2018-05-15T07:14:56.207Z,99.90
2018-05-15T07:17:23.729Z,99.90
2018-05-15T07:19:51.225Z,99.90
2018-05-15T07:22:18.717Z,99.90
2018-05-15T07:24:46.229Z,99.90
2018-05-15T07:27:13.814Z,99.90
2018-05-15T07:29:41.254Z,99.90
2018-05-15T07:32:09.564Z,99.90
2018-05-15T07:34:37.078Z,99.90
2018-05-15T07:37:05.334Z,99.90
2018-05-15T07:39:32.842Z,99.90
2018-05-15T07:42:00.333Z,99.20
2018-05-15T07:44:27.849Z,98.30
2018-05-15T07:46:55.418Z,98.50
2018-05-15T07:49:22.905Z,98.10
2018-05-15T07:51:50.405Z,98.20
2018-05-15T07:54:18.674Z,97.10
2018-05-15T07:56:46.235Z,96.80
2018-05-15T07:59:13.720Z,96.80
2018-05-15T08:01:41.234Z,95.80
2018-05-15T08:04:08.757Z,95.30
2018-05-15T08:06:36.241Z,95.80
2018-05-15T08:09:03.758Z,94.60
2018-05-15T08:11:31.246Z,94.50
2018-05-15T08:13:58.726Z,95.90
2018-05-15T08:16:26.333Z,95.00
2018-05-15T08:18:53.741Z,95.60
2018-05-15T08:21:21.240Z,95.80
2018-05-15T08:23:49.901Z,94.10
2018-05-15T08:26:17.394Z,94.00
2018-05-15T08:28:44.897Z,93.80
2018-05-15T08:31:12.410Z,93.70
2018-05-15T08:33:39.964Z,94.70
2018-05-15T08:36:07.450Z,95.40
2018-05-15T08:38:34.958Z,95.00
2018-05-15T08:41:02.439Z,92.80
2018-05-15T08:43:30.712Z,92.40
2018-05-15T08:45:59.000Z,92.70
2018-05-15T08:48:26.507Z,92.70
2018-05-15T08:50:54.010Z,93.30
2018-05-15T08:53:21.514Z,93.00
2018-05-15T08:55:49.002Z,92.60
2018-05-15T08:58:16.490Z,92.00
2018-05-15T09:00:43.993Z,92.20
2018-05-15T09:03:11.477Z,92.00
2018-05-15T09:05:39.742Z,91.40
2018-05-15T09:08:07.247Z,91.10
2018-05-15T09:10:34.746Z,90.50
2018-05-15T09:13:02.245Z,87.50
2018-05-15T09:15:30.534Z,85.90
2018-05-15T09:17:58.062Z,85.80
2018-05-15T09:20:25.540Z,83.70
2018-05-15T09:22:53.812Z,79.70
2018-05-15T09:25:22.061Z,81.80
2018-05-15T09:27:49.549Z,81.70
2018-05-15T09:30:17.852Z,84.20
2018-05-15T09:32:45.333Z,84.20
2018-05-15T09:35:12.823Z,84.60
2018-05-15T09:37:40.326Z,83.80
2018-05-15T09:40:07.806Z,83.70
2018-05-15T09:42:35.294Z,84.50
2018-05-15T09:45:02.792Z,85.20
2018-05-15T09:47:30.283Z,88.90
2018-05-15T09:49:57.779Z,87.80
2018-05-15T09:52:25.303Z,85.30
2018-05-15T09:54:52.786Z,85.10
2018-05-15T09:57:20.282Z,83.70
2018-05-15T09:59:47.833Z,83.20
2018-05-15T10:02:16.078Z,78.40
2018-05-15T10:04:43.558Z,78.30
2018-05-15T10:07:11.819Z,69.50
2018-05-15T10:09:39.303Z,69.40
2018-05-15T10:12:07.545Z,69.10
2018-05-15T10:14:35.055Z,69.10
2018-05-15T10:17:02.544Z,68.60
2018-05-15T10:19:30.021Z,68.90
2018-05-15T10:21:57.531Z,68.40
2018-05-15T10:24:25.022Z,71.10
2018-05-15T10:26:52.510Z,67.80
2018-05-15T10:29:20.774Z,68.90
2018-05-15T10:31:48.261Z,68.90
2018-05-15T10:34:16.505Z,66.90
2018-05-15T10:36:44.016Z,66.80
2018-05-15T10:39:11.490Z,66.70
2018-05-15T10:41:38.977Z,65.30
2018-05-15T10:44:07.281Z,65.10
2018-05-15T10:46:35.537Z,63.00
2018-05-15T10:49:03.033Z,62.90
2018-05-15T10:51:30.536Z,61.10
2018-05-15T10:53:58.019Z,60.00
2018-05-15T10:56:25.501Z,60.20
2018-05-15T10:58:53.004Z,59.00
2018-05-15T11:01:20.500Z,58.70
2018-05-15T11:03:48.758Z,58.90
2018-05-15T11:06:16.284Z,58.90
2018-05-15T11:08:43.773Z,59.60
2018-05-15T11:11:11.255Z,60.80
2018-05-15T11:13:39.583Z,66.90
2018-05-15T11:16:07.057Z,66.90
2018-05-15T11:18:42.057Z,71.80
2018-05-15T11:21:21.409Z,75.40
2018-05-15T11:24:00.834Z,72.80
2018-05-15T11:26:28.328Z,77.90
2018-05-15T11:28:55.801Z,77.40
2018-05-15T11:31:23.310Z,79.00
2018-05-15T11:33:50.786Z,80.00
2018-05-15T11:36:18.271Z,82.90
2018-05-15T11:38:45.774Z,89.50
2018-05-15T11:41:13.253Z,88.30
2018-05-15T11:43:40.734Z,86.80
2018-05-15T11:46:08.230Z,85.50
2018-05-15T11:48:36.851Z,83.70
2018-05-15T11:51:04.674Z,83.70
2018-05-15T11:53:31.485Z,83.00
2018-05-15T11:55:59.008Z,83.50
2018-05-15T11:58:27.248Z,79.60
2018-05-15T12:00:56.082Z,79.00
2018-05-15T12:03:23.567Z,79.00
2018-05-15T12:05:51.082Z,79.90
2018-05-15T12:08:18.806Z,81.80
2018-05-15T12:10:47.240Z,83.90
2018-05-15T12:13:14.758Z,87.70
2018-05-15T12:15:43.033Z,99.90
2018-05-15T12:18:10.563Z,99.90
2018-05-15T12:20:38.058Z,99.90
2018-05-15T12:23:06.369Z,99.90
2018-05-15T12:25:33.857Z,99.90
2018-05-15T12:28:01.463Z,99.90
2018-05-15T12:30:28.918Z,99.90
2018-05-15T12:32:57.185Z,99.90
2018-05-15T12:35:25.471Z,99.90
2018-05-15T12:37:52.990Z,99.90
2018-05-15T12:40:20.531Z,99.90
2018-05-15T12:42:48.016Z,99.90
2018-05-15T12:45:15.522Z,99.90
2018-05-15T12:47:43.015Z,99.90
2018-05-15T12:50:10.494Z,99.90
2018-05-15T12:52:37.995Z,99.90
2018-05-15T12:55:06.278Z,99.90
2018-05-15T12:57:33.762Z,99.90
2018-05-15T13:00:01.279Z,99.90
2018-05-15T13:02:28.789Z,97.30
2018-05-15T13:04:56.287Z,96.20
2018-05-15T13:07:24.561Z,96.40
2018-05-15T13:09:52.809Z,96.40
2018-05-15T13:12:20.299Z,96.40
2018-05-15T13:14:48.592Z,92.20
2018-05-15T13:17:16.080Z,92.20
2018-05-15T13:19:43.566Z,92.00
2018-05-15T13:22:11.070Z,93.30
2018-05-15T13:24:38.585Z,90.90
2018-05-15T13:27:06.063Z,88.80
2018-05-15T13:29:34.358Z,78.00
2018-05-15T13:32:01.856Z,78.10
2018-05-15T13:34:29.753Z,82.00
2018-05-15T13:36:57.262Z,82.60
2018-05-15T13:39:24.753Z,80.90
2018-05-15T13:41:52.233Z,79.20
2018-05-15T13:44:19.742Z,73.40
2018-05-15T13:46:47.225Z,72.80
2018-05-15T13:49:14.714Z,75.00
2018-05-15T13:51:42.995Z,76.80
2018-05-15T13:54:10.501Z,76.80
2018-05-15T13:56:37.990Z,77.20
2018-05-15T13:59:05.492Z,74.90
2018-05-15T14:01:33.133Z,72.90
2018-05-15T14:04:01.385Z,67.60
2018-05-15T14:06:28.952Z,67.50
2018-05-15T14:08:56.449Z,64.00
2018-05-15T14:11:23.925Z,61.00
2018-05-15T14:13:51.430Z,66.80
2018-05-15T14:16:18.923Z,66.50
2018-05-15T14:18:46.415Z,67.80
2018-05-15T14:21:13.922Z,68.90
2018-05-15T14:23:42.208Z,66.60
2018-05-15T14:26:09.693Z,66.60
2018-05-15T14:28:37.221Z,65.10
2018-05-15T14:31:05.477Z,61.70
2018-05-15T14:33:32.953Z,61.60
2018-05-15T14:36:01.232Z,61.40
2018-05-15T14:38:28.712Z,61.20
2018-05-15T14:40:56.198Z,63.10
2018-05-15T14:43:25.347Z,65.20
2018-05-15T14:45:53.621Z,69.30
2018-05-15T14:48:21.103Z,69.30
2018-05-15T14:54:06.898Z,69.10
2018-05-15T14:56:34.397Z,69.50
2018-05-15T14:59:01.911Z,72.20
2018-05-15T15:01:29.393Z,70.90
2018-05-15T15:03:56.903Z,71.00
2018-05-15T15:06:25.153Z,72.00
2018-05-15T15:08:52.633Z,72.10
2018-05-15T15:11:20.302Z,70.80
2018-05-15T15:13:47.825Z,70.60
2018-05-15T15:16:15.326Z,70.40
2018-05-15T15:18:42.858Z,70.20
2018-05-15T15:21:10.380Z,71.50
2018-05-15T15:23:37.981Z,72.90
2018-05-15T15:26:06.206Z,74.00
2018-05-15T15:28:33.697Z,74.00
2018-05-15T15:31:01.955Z,74.50
2018-05-15T15:33:29.466Z,74.50
2018-05-15T15:35:56.956Z,75.50
2018-05-15T15:38:24.465Z,76.80
2018-05-15T15:40:52.004Z,76.60
2018-05-15T15:43:19.491Z,77.00
2018-05-15T15:45:47.053Z,76.60
2018-05-15T15:48:14.617Z,74.40
2018-05-15T15:50:42.719Z,74.60
2018-05-15T15:53:10.946Z,75.60
2018-05-15T15:55:38.455Z,75.60
2018-05-15T15:58:06.014Z,75.60
2018-05-15T16:00:33.518Z,75.60
2018-05-15T16:03:01.033Z,78.40
2018-05-15T16:05:28.793Z,78.20
2018-05-15T16:07:56.282Z,79.10
2018-05-15T16:10:24.031Z,79.50
2018-05-15T16:12:51.513Z,81.60
2018-05-15T16:15:19.015Z,82.90
2018-05-15T16:17:47.294Z,84.10
2018-05-15T16:20:15.600Z,85.50
2018-05-15T16:22:44.795Z,85.40
2018-05-15T16:25:13.088Z,84.90
2018-05-15T16:27:40.648Z,84.40
2018-05-15T16:30:08.178Z,86.60
2018-05-15T16:32:35.696Z,86.10
2018-05-15T16:35:03.186Z,86.90
2018-05-15T16:37:31.432Z,87.40
2018-05-15T16:39:59.156Z,87.30
2018-05-15T16:42:26.653Z,88.10
2018-05-15T16:44:54.330Z,88.40
2018-05-15T16:47:21.925Z,89.40
2018-05-15T16:49:49.340Z,90.30
2018-05-15T16:52:16.845Z,89.70
2018-05-15T16:54:44.347Z,90.80
2018-05-15T16:57:11.847Z,90.90
2018-05-15T16:59:39.333Z,90.80
2018-05-15T17:02:06.841Z,90.80
2018-05-15T17:04:34.328Z,90.60
2018-05-15T17:07:01.815Z,91.70
2018-05-15T17:09:29.319Z,90.30
2018-05-15T17:11:56.817Z,90.00
2018-05-15T17:14:24.300Z,89.90
2018-05-15T17:16:51.795Z,90.00
2018-05-15T17:19:20.054Z,91.10
2018-05-15T17:21:47.594Z,91.10
2018-05-15T17:24:15.107Z,92.30
2018-05-15T17:26:42.623Z,91.30
2018-05-15T17:29:10.162Z,91.50
2018-05-15T17:31:37.687Z,91.20
2018-05-15T17:34:05.194Z,91.00
2018-05-15T17:36:32.701Z,91.00
2018-05-15T17:39:00.224Z,94.10
2018-05-15T17:41:27.716Z,99.90
2018-05-15T17:43:55.972Z,93.40
2018-05-15T17:46:24.277Z,99.80
2018-05-15T17:48:52.037Z,98.80
2018-05-15T17:51:20.299Z,99.00
2018-05-15T17:53:48.049Z,98.90
2018-05-15T17:56:15.549Z,99.30
2018-05-15T17:58:43.050Z,99.90
2018-05-15T18:01:10.577Z,99.60
2018-05-15T18:03:38.064Z,99.90
2018-05-15T18:06:05.602Z,99.90
2018-05-15T18:08:33.180Z,99.90
2018-05-15T18:11:01.543Z,99.90
2018-05-15T18:13:29.043Z,99.90
2018-05-15T18:15:56.561Z,99.90
2018-05-15T18:18:24.041Z,99.90
2018-05-15T18:20:51.524Z,99.90
2018-05-15T18:23:19.019Z,99.90
2018-05-15T18:25:46.498Z,99.90
2018-05-15T18:28:14.301Z,99.90
2018-05-15T18:30:41.811Z,99.90
2018-05-15T18:33:09.380Z,99.90
2018-05-15T18:35:36.855Z,99.90
2018-05-15T18:38:04.422Z,99.90
2018-05-15T18:40:31.909Z,99.90
2018-05-15T18:43:00.163Z,99.90
2018-05-15T18:45:27.760Z,99.90
2018-05-15T18:47:56.008Z,99.90
2018-05-15T18:50:23.620Z,99.90
2018-05-15T18:52:51.117Z,99.90
2018-05-15T18:55:18.597Z,99.90
2018-05-15T18:57:46.888Z,99.90
2018-05-15T19:00:15.247Z,99.90
2018-05-15T19:02:42.796Z,99.90
2018-05-15T19:05:10.339Z,99.90
2018-05-15T19:07:37.838Z,99.90
2018-05-15T19:10:06.095Z,99.90
2018-05-15T19:12:33.626Z,99.90
2018-05-15T19:15:01.138Z,99.90
2018-05-15T19:17:29.478Z,99.90
2018-05-15T19:19:56.961Z,99.90
2018-05-15T19:22:25.272Z,99.90
2018-05-15T19:24:52.806Z,99.90
2018-05-15T19:27:20.319Z,99.90
2018-05-15T19:29:47.821Z,99.90
2018-05-15T19:32:16.843Z,99.90
2018-05-15T19:34:50.138Z,99.90
2018-05-15T19:37:17.618Z,99.90
2018-05-15T19:39:45.185Z,99.90
2018-05-15T19:42:13.397Z,99.90
2018-05-15T19:44:41.655Z,99.90
2018-05-15T19:47:09.192Z,99.90
2018-05-15T19:49:37.468Z,99.90
2018-05-15T19:52:05.046Z,99.90
2018-05-15T19:54:32.486Z,99.90
2018-05-15T19:57:00.030Z,99.90
2018-05-15T19:59:27.548Z,99.90
2018-05-15T20:01:55.935Z,99.90
2018-05-15T20:04:23.410Z,99.90
2018-05-15T20:06:50.902Z,99.90
2018-05-15T20:09:18.833Z,99.90
2018-05-15T20:11:46.328Z,99.90
2018-05-15T20:14:13.826Z,99.90
2018-05-15T20:16:42.074Z,99.90
2018-05-15T20:19:09.590Z,99.90
2018-05-15T20:21:37.093Z,99.90
2018-05-15T20:24:04.594Z,99.90
2018-05-15T20:26:32.874Z,99.90
2018-05-15T20:29:00.380Z,99.90
2018-05-15T20:31:27.878Z,99.90
2018-05-15T20:33:56.169Z,99.90
2018-05-15T20:36:23.652Z,99.90
2018-05-15T20:38:51.204Z,99.90
2018-05-15T20:41:18.705Z,99.90
2018-05-15T20:43:46.198Z,99.90
2018-05-15T20:46:14.449Z,99.90
2018-05-15T20:48:41.958Z,99.90
2018-05-15T20:51:09.434Z,99.90
2018-05-15T20:53:36.917Z,99.90
2018-05-15T20:56:04.429Z,99.90
2018-05-15T20:58:31.920Z,99.90
2018-05-15T21:00:59.402Z,99.90
2018-05-15T21:03:26.897Z,99.90
2018-05-15T21:05:54.394Z,99.90
2018-05-15T21:08:21.933Z,99.90
2018-05-15T21:10:49.473Z,99.90
2018-05-15T21:13:16.963Z,99.90
2018-05-15T21:15:44.441Z,99.90
2018-05-15T21:18:11.938Z,99.90
2018-05-15T21:20:39.428Z,99.90
2018-05-15T21:23:06.954Z,99.90
2018-05-15T21:25:34.462Z,99.90
2018-05-15T21:28:01.937Z,99.90
2018-05-15T21:30:29.421Z,99.90
2018-05-15T21:32:57.689Z,99.90
2018-05-15T21:35:25.964Z,99.90
2018-05-15T21:37:54.218Z,99.90
2018-05-15T21:40:21.732Z,99.90
2018-05-15T21:42:49.353Z,99.90
2018-05-15T21:45:16.858Z,99.90
2018-05-15T21:47:44.356Z,99.90
2018-05-15T21:50:11.838Z,99.90
2018-05-15T21:52:40.131Z,99.90
2018-05-15T21:55:07.598Z,99.90
2018-05-15T21:57:35.098Z,99.90
2018-05-15T22:00:02.590Z,99.90
2018-05-15T22:02:30.902Z,99.90
2018-05-15T22:04:58.389Z,99.90
2018-05-15T22:07:25.866Z,99.90
2018-05-15T22:09:53.374Z,99.90
2018-05-15T22:12:32.659Z,99.90
2018-05-15T22:15:12.122Z,99.90
2018-05-15T22:17:52.275Z,99.90
2018-05-15T22:20:32.434Z,99.90
2018-05-15T22:23:00.173Z,99.90
2018-05-15T22:25:27.655Z,99.90
2018-05-15T22:27:55.917Z,99.90
2018-05-15T22:30:24.178Z,99.90
2018-05-15T22:32:51.665Z,99.90
2018-05-15T22:35:19.928Z,99.90
2018-05-15T22:37:48.225Z,99.90
2018-05-15T22:40:15.710Z,99.90
2018-05-15T22:42:43.221Z,99.90
2018-05-15T22:45:10.744Z,99.90
2018-05-15T22:47:38.235Z,99.90
2018-05-15T22:50:05.761Z,99.90
2018-05-15T22:52:33.246Z,99.90
2018-05-15T22:55:00.746Z,99.90
2018-05-15T22:57:28.267Z,99.90
2018-05-15T22:59:55.765Z,99.90
2018-05-15T23:02:23.662Z,99.90
2018-05-15T23:04:51.182Z,99.90
2018-05-15T23:07:18.684Z,99.90
2018-05-15T23:09:46.179Z,99.90
2018-05-15T23:12:14.455Z,99.90
2018-05-15T23:14:42.714Z,99.90
2018-05-15T23:17:10.197Z,99.90
2018-05-15T23:19:38.469Z,99.90
2018-05-15T23:22:06.727Z,99.90
2018-05-15T23:24:34.227Z,99.90
2018-05-15T23:27:01.784Z,99.90
2018-05-15T23:29:29.301Z,99.90
2018-05-15T23:31:56.769Z,99.90
2018-05-15T23:34:25.059Z,99.90
2018-05-15T23:36:53.305Z,99.90
2018-05-15T23:39:20.803Z,99.90
2018-05-15T23:41:49.074Z,99.90
2018-05-15T23:44:17.332Z,99.90
2018-05-15T23:46:44.814Z,99.90
2018-05-15T23:49:13.090Z,99.90
2018-05-15T23:51:41.355Z,99.90
2018-05-15T23:54:09.616Z,99.90
2018-05-15T23:56:37.150Z,99.90
2018-05-15T23:59:05.426Z,99.90
